Time;durP1;ratioP1;P1;durP2;ratioP2;P2;SDS_P1;SDS_P2;PMS_P1;PMS_P2;Temp;Humidity;BMP_temperature;BMP_pressure;BME280_temperature;BME280_humidity;BME280_pressure;Samples;Min_cycle;Max_cycle;Signal;HPM_P1;HPM_P2
2023/07/12 00:00:29;;;;;;;6.28;5.47;;;;;;;;;;5065053;28;20203;-79
2023/07/12 00:02:56;;;;;;;7.03;6.32;;;;;;;;;;5108439;28;20292;-79
2023/07/12 00:05:25;;;;;;;7.47;6.77;;;;;;;;;;5100517;28;20199;-78
2023/07/12 00:07:52;;;;;;;9.80;5.80;;;;;;;;;;5076331;28;20204;-79
2023/07/12 00:10:23;;;;;;;7.40;6.33;;;;;;;;;;5082147;28;20199;-78
2023/07/12 00:12:51;;;;;;;6.57;5.97;;;;;;;;;;5093192;28;20201;-78
2023/07/12 00:15:21;;;;;;;7.10;6.50;;;;;;;;;;5101762;28;20207;-78
2023/07/12 00:17:48;;;;;;;9.73;6.40;;;;;;;;;;5076219;28;20577;-78
2023/07/12 00:20:22;;;;;;;7.20;6.17;;;;;;;;;;5110556;28;20741;-78
2023/07/12 00:22:50;;;;;;;7.30;6.20;;;;;;;;;;5104814;28;20208;-78
2023/07/12 00:25:19;;;;;;;6.95;5.85;;;;;;;;;;5086208;28;20203;-78
2023/07/12 00:27:48;;;;;;;7.43;6.13;;;;;;;;;;5103878;28;20689;-78
2023/07/12 00:30:18;;;;;;;8.00;6.37;;;;;;;;;;5072941;28;20678;-77
2023/07/12 00:32:48;;;;;;;5.90;5.40;;;;;;;;;;5090079;28;20208;-77
2023/07/12 00:35:17;;;;;;;6.30;5.80;;;;;;;;;;5104119;28;20229;-77
2023/07/12 00:37:44;;;;;;;7.00;5.77;;;;;;;;;;5081674;28;20199;-78
2023/07/12 00:40:23;;;;;;;16.63;5.97;;;;;;;;;;5092968;28;20203;-78
2023/07/12 00:42:53;;;;;;;7.20;6.10;;;;;;;;;;5109340;28;20203;-78
2023/07/12 00:45:20;;;;;;;7.40;6.70;;;;;;;;;;5092763;28;20211;-78
2023/07/12 00:47:49;;;;;;;7.27;6.23;;;;;;;;;;5097138;28;20208;-78
2023/07/12 00:50:18;;;;;;;6.87;6.27;;;;;;;;;;5111050;28;20230;-77
2023/07/12 00:52:46;;;;;;;6.63;5.97;;;;;;;;;;5088030;28;20201;-78
2023/07/12 00:55:54;;;;;;;6.43;5.63;;;;;;;;;;5077186;28;20202;-78
2023/07/12 00:58:22;;;;;;;7.23;6.10;;;;;;;;;;5108513;28;20195;-78
2023/07/12 01:00:49;;;;;;;7.07;6.00;;;;;;;;;;5109427;28;20210;-78
2023/07/12 01:03:17;;;;;;;6.77;6.17;;;;;;;;;;5092477;28;20206;-77
2023/07/12 01:05:46;;;;;;;6.77;6.17;;;;;;;;;;5097174;28;20204;-78
2023/07/12 01:08:13;;;;;;;5.93;5.43;;;;;;;;;;5097344;28;20203;-78
2023/07/12 01:10:40;;;;;;;6.07;5.47;;;;;;;;;;5091585;28;20203;-78
2023/07/12 01:13:08;;;;;;;8.47;6.13;;;;;;;;;;5092471;28;20203;-78
2023/07/12 01:15:37;;;;;;;6.67;6.07;;;;;;;;;;5110796;28;20206;-78
2023/07/12 01:18:05;;;;;;;7.60;6.73;;;;;;;;;;5072291;28;20706;-77
2023/07/12 01:20:36;;;;;;;7.97;6.00;;;;;;;;;;5104074;28;20199;-78
2023/07/12 01:23:05;;;;;;;6.93;6.23;;;;;;;;;;5102230;28;20681;-77
2023/07/12 01:25:35;;;;;;;8.43;6.87;;;;;;;;;;5082541;28;20654;-78
2023/07/12 01:28:02;;;;;;;12.80;6.70;;;;;;;;;;5103475;28;20208;-77
2023/07/12 01:30:29;;;;;;;7.73;5.90;;;;;;;;;;5107260;28;20681;-77
2023/07/12 01:32:56;;;;;;;8.97;6.30;;;;;;;;;;5102869;28;20199;-78
2023/07/12 01:35:23;;;;;;;6.50;5.90;;;;;;;;;;5110695;28;20232;-78
2023/07/12 01:37:50;;;;;;;6.60;6.00;;;;;;;;;;5103573;28;20706;-77
2023/07/12 01:40:19;;;;;;;11.20;5.60;;;;;;;;;;5089862;28;20670;-78
2023/07/12 01:42:46;;;;;;;6.23;5.63;;;;;;;;;;5086205;28;20204;-78
2023/07/12 01:45:16;;;;;;;6.63;5.93;;;;;;;;;;5099888;28;20215;-78
2023/07/12 01:47:45;;;;;;;7.20;6.50;;;;;;;;;;5095668;28;20939;-78
2023/07/12 01:50:12;;;;;;;8.23;6.43;;;;;;;;;;5080597;28;20253;-78
2023/07/12 01:52:39;;;;;;;7.63;6.90;;;;;;;;;;5093275;28;20200;-78
2023/07/12 01:55:07;;;;;;;7.83;7.03;;;;;;;;;;5094040;28;20733;-78
2023/07/12 01:57:35;;;;;;;8.67;6.17;;;;;;;;;;5074580;28;20249;-78
2023/07/12 02:00:03;;;;;;;7.03;6.33;;;;;;;;;;5092672;28;20206;-78
2023/07/12 02:02:31;;;;;;;7.37;6.40;;;;;;;;;;5093891;28;20203;-78
2023/07/12 02:04:58;;;;;;;7.13;6.43;;;;;;;;;;5102035;28;20206;-78
2023/07/12 02:07:25;;;;;;;7.53;6.00;;;;;;;;;;5099477;28;20211;-78
2023/07/12 02:10:13;;;;;;;7.97;6.17;;;;;;;;;;5113166;28;20207;-78
2023/07/12 02:12:42;;;;;;;8.37;6.30;;;;;;;;;;5108149;28;20197;-78
2023/07/12 02:15:10;;;;;;;7.33;5.97;;;;;;;;;;5104866;28;20231;-78
2023/07/12 02:17:37;;;;;;;8.80;6.57;;;;;;;;;;5107701;28;20200;-78
2023/07/12 02:20:05;;;;;;;11.23;6.40;;;;;;;;;;5105154;28;20203;-78
2023/07/12 02:22:33;;;;;;;8.13;5.83;;;;;;;;;;5093939;28;20200;-78
2023/07/12 02:25:00;;;;;;;12.23;6.57;;;;;;;;;;5092877;28;20228;-78
2023/07/12 02:27:27;;;;;;;8.10;6.17;;;;;;;;;;5106561;28;20254;-77
2023/07/12 02:29:56;;;;;;;7.37;6.53;;;;;;;;;;5104193;28;20203;-78
2023/07/12 02:32:23;;;;;;;8.57;7.43;;;;;;;;;;5098692;28;20203;-78
2023/07/12 02:34:50;;;;;;;7.70;6.53;;;;;;;;;;5112556;28;20679;-78
2023/07/12 02:37:17;;;;;;;6.47;5.87;;;;;;;;;;5112588;28;20202;-78
2023/07/12 02:39:44;;;;;;;7.90;6.60;;;;;;;;;;5112749;28;20286;-78
2023/07/12 02:42:11;;;;;;;8.00;6.83;;;;;;;;;;5093070;28;20196;-78
2023/07/12 02:44:38;;;;;;;6.63;5.37;;;;;;;;;;5092460;28;20663;-78
2023/07/12 02:47:07;;;;;;;7.37;6.73;;;;;;;;;;5097605;28;20196;-78
2023/07/12 02:49:34;;;;;;;6.23;5.63;;;;;;;;;;5103916;28;20231;-78
2023/07/12 02:52:01;;;;;;;7.10;6.43;;;;;;;;;;5111631;28;20716;-77
2023/07/12 02:54:28;;;;;;;6.67;5.63;;;;;;;;;;5111701;28;20215;-78
2023/07/12 02:56:55;;;;;;;6.67;6.07;;;;;;;;;;5112475;28;20246;-78
2023/07/12 02:59:22;;;;;;;6.80;6.20;;;;;;;;;;5112537;28;20210;-78
2023/07/12 03:01:48;;;;;;;7.03;6.17;;;;;;;;;;5112592;28;20204;-78
2023/07/12 03:04:17;;;;;;;7.90;7.10;;;;;;;;;;5112405;28;20203;-78
2023/07/12 03:06:44;;;;;;;6.47;5.97;;;;;;;;;;5112728;28;20208;-78
2023/07/12 03:09:11;;;;;;;6.50;5.83;;;;;;;;;;5112093;28;20663;-78
2023/07/12 03:11:38;;;;;;;7.60;5.77;;;;;;;;;;5112154;28;20199;-78
2023/07/12 03:14:05;;;;;;;6.90;6.13;;;;;;;;;;5112294;28;20234;-78
2023/07/12 03:16:32;;;;;;;7.83;6.23;;;;;;;;;;5112369;28;20669;-77
2023/07/12 03:18:59;;;;;;;6.57;5.97;;;;;;;;;;5111739;28;20583;-77
2023/07/12 03:21:27;;;;;;;6.47;5.97;;;;;;;;;;5112177;28;20293;-78
2023/07/12 03:23:54;;;;;;;7.20;6.50;;;;;;;;;;5112089;28;20204;-78
2023/07/12 03:26:21;;;;;;;8.17;6.33;;;;;;;;;;5111639;28;20206;-77
2023/07/12 03:28:48;;;;;;;7.10;6.47;;;;;;;;;;5111873;28;20204;-78
2023/07/12 03:31:16;;;;;;;7.10;6.43;;;;;;;;;;5112127;28;20218;-77
2023/07/12 03:33:43;;;;;;;10.63;6.70;;;;;;;;;;5098538;28;20286;-77
2023/07/12 03:36:10;;;;;;;6.87;5.53;;;;;;;;;;5091328;28;20748;-78
2023/07/12 03:38:39;;;;;;;9.40;6.83;;;;;;;;;;5103325;28;20262;-78
2023/07/12 03:41:07;;;;;;;7.10;6.40;;;;;;;;;;5102738;28;20199;-78
2023/07/12 03:43:34;;;;;;;9.03;6.27;;;;;;;;;;5111504;28;20211;-78
2023/07/12 03:46:01;;;;;;;8.70;6.97;;;;;;;;;;5109993;28;20211;-78
2023/07/12 03:48:28;;;;;;;8.87;5.80;;;;;;;;;;5111291;28;20204;-78
2023/07/12 03:50:55;;;;;;;7.10;6.40;;;;;;;;;;5111752;28;20280;-77
2023/07/12 03:53:23;;;;;;;7.17;6.47;;;;;;;;;;5111626;28;20231;-78
2023/07/12 03:55:51;;;;;;;7.37;6.37;;;;;;;;;;5111176;28;20245;-77
2023/07/12 03:58:21;;;;;;;7.07;6.33;;;;;;;;;;5111145;28;20191;-77
2023/07/12 04:00:50;;;;;;;7.00;6.30;;;;;;;;;;5111424;28;20203;-78
2023/07/12 04:03:18;;;;;;;8.50;6.43;;;;;;;;;;5110163;28;20203;-78
2023/07/12 04:05:49;;;;;;;6.37;5.77;;;;;;;;;;5111203;28;20211;-78
2023/07/12 04:08:15;;;;;;;6.83;6.13;;;;;;;;;;5111395;28;20207;-79
2023/07/12 04:10:42;;;;;;;6.87;6.27;;;;;;;;;;5110429;28;20211;-78
2023/07/12 04:13:10;;;;;;;8.50;6.60;;;;;;;;;;5111202;28;20260;-79
2023/07/12 04:15:37;;;;;;;7.03;6.40;;;;;;;;;;5109085;28;20223;-78
2023/07/12 04:18:04;;;;;;;10.77;6.83;;;;;;;;;;5111184;28;20211;-77
2023/07/12 04:20:31;;;;;;;10.70;6.67;;;;;;;;;;5110345;28;20199;-77
2023/07/12 04:22:58;;;;;;;6.43;5.83;;;;;;;;;;5093628;28;20293;-78
2023/07/12 04:25:25;;;;;;;6.20;5.60;;;;;;;;;;5101843;28;20227;-82
2023/07/12 04:27:52;;;;;;;7.13;5.97;;;;;;;;;;5093231;28;20204;-81
2023/07/12 04:30:20;;;;;;;8.20;7.40;;;;;;;;;;5103333;28;20207;-82
2023/07/12 04:32:47;;;;;;;7.30;6.40;;;;;;;;;;5090524;28;20212;-81
2023/07/12 04:35:14;;;;;;;8.77;7.37;;;;;;;;;;5103806;28;20235;-81
2023/07/12 04:37:45;;;;;;;9.20;7.07;;;;;;;;;;5100464;28;20203;-82
2023/07/12 04:40:13;;;;;;;8.13;7.43;;;;;;;;;;5110640;28;20202;-82
2023/07/12 04:42:40;;;;;;;8.10;7.20;;;;;;;;;;5100283;28;20258;-81
2023/07/12 04:45:09;;;;;;;8.73;7.63;;;;;;;;;;5107425;28;20200;-82
2023/07/12 04:47:37;;;;;;;11.30;6.93;;;;;;;;;;5110615;28;20294;-81
2023/07/12 04:50:04;;;;;;;13.97;7.90;;;;;;;;;;5092182;28;20228;-81
2023/07/12 04:52:31;;;;;;;10.80;6.70;;;;;;;;;;5100283;28;20203;-82
2023/07/12 04:54:58;;;;;;;9.47;7.33;;;;;;;;;;5105155;28;20227;-82
2023/07/12 04:57:25;;;;;;;8.27;6.87;;;;;;;;;;5103924;28;20200;-82
2023/07/12 04:59:52;;;;;;;8.60;7.80;;;;;;;;;;5100968;28;20253;-82
2023/07/12 05:02:19;;;;;;;8.97;7.57;;;;;;;;;;5102316;28;20238;-82
2023/07/12 05:04:47;;;;;;;9.77;6.90;;;;;;;;;;5107775;28;20204;-82
2023/07/12 05:07:14;;;;;;;8.17;7.33;;;;;;;;;;5107387;28;20200;-81
2023/07/12 05:09:41;;;;;;;9.27;7.10;;;;;;;;;;5114911;28;20248;-82
2023/07/12 05:12:09;;;;;;;7.20;6.50;;;;;;;;;;5114874;28;20234;-82
2023/07/12 05:14:35;;;;;;;7.60;7.00;;;;;;;;;;5114130;28;20219;-82
2023/07/12 05:17:03;;;;;;;9.23;6.87;;;;;;;;;;5113953;28;20214;-82
2023/07/12 05:19:30;;;;;;;13.27;6.73;;;;;;;;;;5101608;28;20196;-82
2023/07/12 05:21:58;;;;;;;7.97;7.17;;;;;;;;;;5099908;28;20203;-82
2023/07/12 05:24:25;;;;;;;8.23;6.83;;;;;;;;;;5094250;28;20229;-81
2023/07/12 05:26:51;;;;;;;9.00;6.73;;;;;;;;;;5095051;28;20208;-82
2023/07/12 05:29:18;;;;;;;8.57;6.93;;;;;;;;;;5094509;28;20201;-82
2023/07/12 05:31:45;;;;;;;7.93;7.13;;;;;;;;;;5107098;28;20210;-82
2023/07/12 05:34:12;;;;;;;6.40;5.57;;;;;;;;;;5100552;28;20283;-81
2023/07/12 05:36:38;;;;;;;8.20;7.47;;;;;;;;;;5100935;28;20228;-82
2023/07/12 05:39:07;;;;;;;7.23;6.57;;;;;;;;;;5100090;28;20199;-81
2023/07/12 05:41:34;;;;;;;8.87;6.47;;;;;;;;;;5099852;28;20200;-81
2023/07/12 05:44:00;;;;;;;9.93;6.60;;;;;;;;;;5106986;28;20196;-81
2023/07/12 05:46:28;;;;;;;6.97;5.53;;;;;;;;;;5107938;28;20200;-82
2023/07/12 05:48:54;;;;;;;7.93;5.87;;;;;;;;;;5106270;28;20207;-82
2023/07/12 05:51:22;;;;;;;10.00;6.73;;;;;;;;;;5107788;28;20218;-82
2023/07/12 05:53:49;;;;;;;10.38;6.65;;;;;;;;;;5113553;28;20204;-82
2023/07/12 05:56:17;;;;;;;8.25;6.22;;;;;;;;;;5112362;28;20234;-81
2023/07/12 05:58:43;;;;;;;9.48;6.15;;;;;;;;;;5093583;28;20208;-82
2023/07/12 06:01:10;;;;;;;7.43;6.13;;;;;;;;;;5106704;28;20211;-82
2023/07/12 06:03:37;;;;;;;7.22;6.40;;;;;;;;;;5093100;28;20212;-82
2023/07/12 06:06:06;;;;;;;6.35;5.82;;;;;;;;;;5108290;28;20200;-81
2023/07/12 06:08:33;;;;;;;7.18;6.47;;;;;;;;;;5103371;28;20207;-81
2023/07/12 06:11:00;;;;;;;6.63;5.97;;;;;;;;;;5106733;28;20210;-82
2023/07/12 06:13:28;;;;;;;5.93;5.30;;;;;;;;;;5102003;28;20223;-82
2023/07/12 06:15:55;;;;;;;6.93;6.25;;;;;;;;;;5112799;28;20223;-81
2023/07/12 06:18:23;;;;;;;7.60;5.88;;;;;;;;;;5103677;28;20200;-82
2023/07/12 06:20:54;;;;;;;6.20;5.60;;;;;;;;;;5109571;28;20214;-81
2023/07/12 06:23:21;;;;;;;6.13;5.53;;;;;;;;;;5113160;28;20202;-81
2023/07/12 06:25:48;;;;;;;8.52;6.20;;;;;;;;;;5112611;28;20196;-81
2023/07/12 06:28:15;;;;;;;6.63;5.93;;;;;;;;;;5101954;28;20208;-81
2023/07/12 06:30:43;;;;;;;8.25;6.57;;;;;;;;;;5106296;28;20204;-82
2023/07/12 06:33:11;;;;;;;8.50;6.55;;;;;;;;;;5104081;28;20207;-82
2023/07/12 06:35:38;;;;;;;7.68;7.00;;;;;;;;;;5107473;28;20235;-82
2023/07/12 06:38:05;;;;;;;7.10;6.40;;;;;;;;;;5104660;28;20203;-82
2023/07/12 06:40:31;;;;;;;8.48;6.35;;;;;;;;;;5099343;28;20199;-82
2023/07/12 06:42:58;;;;;;;10.52;6.53;;;;;;;;;;5112904;28;20199;-82
2023/07/12 06:45:25;;;;;;;7.72;6.40;;;;;;;;;;5099070;28;20199;-82
2023/07/12 06:47:53;;;;;;;8.20;6.45;;;;;;;;;;5099859;28;20204;-81
2023/07/12 06:50:21;;;;;;;7.97;6.32;;;;;;;;;;5105968;28;20229;-82
2023/07/12 06:52:47;;;;;;;6.95;6.25;;;;;;;;;;5092406;28;20204;-82
2023/07/12 06:55:14;;;;;;;8.13;6.80;;;;;;;;;;5098431;28;20805;-82
2023/07/12 06:57:41;;;;;;;7.80;6.18;;;;;;;;;;5098880;28;20200;-82
2023/07/12 07:00:10;;;;;;;7.90;7.10;;;;;;;;;;5105344;28;20200;-82
2023/07/12 07:02:37;;;;;;;9.95;6.55;;;;;;;;;;5092092;28;20207;-82
2023/07/12 07:05:09;;;;;;;7.10;6.50;;;;;;;;;;5112434;28;20639;-82
2023/07/12 07:07:35;;;;;;;6.95;6.35;;;;;;;;;;5110576;28;20681;-82
2023/07/12 07:10:02;;;;;;;7.95;6.50;;;;;;;;;;5091672;28;20670;-82
2023/07/12 07:12:30;;;;;;;7.97;7.28;;;;;;;;;;5105720;28;20208;-82
2023/07/12 07:14:57;;;;;;;7.78;6.55;;;;;;;;;;5092316;28;20567;-82
2023/07/12 07:17:23;;;;;;;8.68;7.15;;;;;;;;;;5094079;28;20212;-82
2023/07/12 07:19:50;;;;;;;9.70;7.22;;;;;;;;;;5112113;28;20195;-82
2023/07/12 07:22:18;;;;;;;7.72;6.93;;;;;;;;;;5109111;28;20207;-82
2023/07/12 07:24:45;;;;;;;6.65;6.10;;;;;;;;;;5091968;28;20196;-82
2023/07/12 07:27:12;;;;;;;7.18;6.40;;;;;;;;;;5104551;28;20204;-82
2023/07/12 07:29:39;;;;;;;10.07;7.10;;;;;;;;;;5100736;28;20261;-82
2023/07/12 07:32:07;;;;;;;8.07;7.28;;;;;;;;;;5095724;28;20204;-82
2023/07/12 07:34:33;;;;;;;7.82;6.45;;;;;;;;;;5100744;28;20611;-82
2023/07/12 07:37:00;;;;;;;8.13;6.47;;;;;;;;;;5108944;28;20236;-82
2023/07/12 07:39:31;;;;;;;8.63;7.18;;;;;;;;;;5091518;28;20261;-82
2023/07/12 07:41:58;;;;;;;7.57;6.63;;;;;;;;;;5108363;28;20230;-82
2023/07/12 07:44:25;;;;;;;8.00;7.28;;;;;;;;;;5111398;28;20295;-82
2023/07/12 07:46:52;;;;;;;8.25;7.25;;;;;;;;;;5111110;28;20211;-82
2023/07/12 07:49:18;;;;;;;8.13;7.03;;;;;;;;;;5111548;28;20231;-82
2023/07/12 07:51:45;;;;;;;8.27;7.35;;;;;;;;;;5107862;28;20657;-82
2023/07/12 07:54:12;;;;;;;9.25;7.85;;;;;;;;;;5091446;28;20200;-82
2023/07/12 07:56:41;;;;;;;15.57;7.90;;;;;;;;;;5090965;28;20323;-82
2023/07/12 07:59:08;;;;;;;9.65;8.00;;;;;;;;;;5091111;28;20200;-82
2023/07/12 08:01:35;;;;;;;8.73;7.88;;;;;;;;;;5105029;28;20200;-82
2023/07/12 08:04:04;;;;;;;11.02;8.13;;;;;;;;;;5102756;28;20203;-82
2023/07/12 08:06:30;;;;;;;8.48;7.68;;;;;;;;;;5106285;28;20200;-82
2023/07/12 08:08:57;;;;;;;8.77;7.85;;;;;;;;;;5102719;28;20207;-82
2023/07/12 08:11:24;;;;;;;7.97;7.28;;;;;;;;;;5111197;28;20200;-82
2023/07/12 08:13:52;;;;;;;8.38;7.57;;;;;;;;;;5111070;28;20203;-82
2023/07/12 08:16:19;;;;;;;12.57;8.75;;;;;;;;;;5111502;28;20215;-83
2023/07/12 08:18:47;;;;;;;9.30;8.40;;;;;;;;;;5098047;28;20621;-82
2023/07/12 08:21:14;;;;;;;8.02;7.22;;;;;;;;;;5110172;28;20654;-83
2023/07/12 08:23:41;;;;;;;8.60;7.05;;;;;;;;;;5098157;28;20204;-82
2023/07/12 08:26:07;;;;;;;10.07;7.60;;;;;;;;;;5110420;28;20191;-82
2023/07/12 08:28:34;;;;;;;11.82;7.53;;;;;;;;;;5097009;28;20212;-81
2023/07/12 08:31:02;;;;;;;11.77;7.40;;;;;;;;;;5103880;28;20196;-82
2023/07/12 08:33:29;;;;;;;7.03;6.43;;;;;;;;;;5109078;28;20264;-82
2023/07/12 08:35:56;;;;;;;8.02;7.07;;;;;;;;;;5107408;28;20220;-82
2023/07/12 08:38:23;;;;;;;8.77;7.13;;;;;;;;;;5095225;28;20207;-82
2023/07/12 08:40:51;;;;;;;7.88;7.18;;;;;;;;;;5095043;28;20211;-83
2023/07/12 08:43:21;;;;;;;8.20;7.20;;;;;;;;;;5109470;28;20210;-82
2023/07/12 08:45:49;;;;;;;8.50;7.70;;;;;;;;;;5115076;28;20204;-83
2023/07/12 08:48:19;;;;;;;7.32;6.60;;;;;;;;;;5101342;28;20200;-82
2023/07/12 08:50:47;;;;;;;8.07;7.28;;;;;;;;;;5105608;28;20275;-82
2023/07/12 08:53:16;;;;;;;8.27;7.45;;;;;;;;;;5111187;28;20199;-83
2023/07/12 08:55:43;;;;;;;8.85;7.35;;;;;;;;;;5114625;28;20245;-83
2023/07/12 08:58:19;;;;;;;8.45;7.13;;;;;;;;;;5097153;28;20199;-81
2023/07/12 09:00:48;;;;;;;8.68;7.88;;;;;;;;;;5106729;28;20203;-83
2023/07/12 09:03:14;;;;;;;7.57;6.88;;;;;;;;;;5108631;28;20204;-83
2023/07/12 09:05:43;;;;;;;7.70;6.90;;;;;;;;;;5106850;28;20218;-83
2023/07/12 09:08:18;;;;;;;8.43;7.40;;;;;;;;;;5108981;28;20197;-83
2023/07/12 09:10:48;;;;;;;9.35;7.68;;;;;;;;;;5107569;28;20264;-82
2023/07/12 09:13:16;;;;;;;8.50;7.10;;;;;;;;;;5094208;28;20208;-83
2023/07/12 09:15:45;;;;;;;8.05;7.28;;;;;;;;;;5108175;28;20199;-83
2023/07/12 09:18:24;;;;;;;8.50;7.85;;;;;;;;;;5114235;28;20632;-83
2023/07/12 09:20:52;;;;;;;10.90;8.38;;;;;;;;;;5114445;28;20203;-83
2023/07/12 09:23:19;;;;;;;8.85;7.97;;;;;;;;;;5103727;28;20204;-83
2023/07/12 09:25:47;;;;;;;14.40;8.27;;;;;;;;;;5111072;28;20210;-82
2023/07/12 09:28:15;;;;;;;11.98;8.50;;;;;;;;;;5114201;28;20820;-83
2023/07/12 09:30:42;;;;;;;11.73;6.90;;;;;;;;;;5109718;28;21052;-83
2023/07/12 09:33:17;;;;;;;8.45;7.70;;;;;;;;;;5104867;28;20298;-83
2023/07/12 09:35:45;;;;;;;8.70;7.80;;;;;;;;;;5108378;28;20203;-83
2023/07/12 09:38:17;;;;;;;12.02;8.13;;;;;;;;;;5106248;28;20211;-82
2023/07/12 09:40:45;;;;;;;8.63;7.93;;;;;;;;;;5107178;28;20201;-83
2023/07/12 09:43:17;;;;;;;8.88;7.82;;;;;;;;;;5093938;28;20196;-82
2023/07/12 09:45:52;;;;;;;10.15;8.23;;;;;;;;;;5113789;28;20226;-83
2023/07/12 09:48:27;;;;;;;11.00;9.20;;;;;;;;;;5110969;28;20677;-83
2023/07/12 09:51:05;;;;;;;9.20;8.40;;;;;;;;;;5093688;28;20660;-82
2023/07/12 09:53:38;;;;;;;10.00;8.52;;;;;;;;;;5106871;28;20778;-83
2023/07/12 09:56:22;;;;;;;9.40;8.60;;;;;;;;;;5107250;28;20239;-83
2023/07/12 09:58:57;;;;;;;10.70;8.85;;;;;;;;;;5104471;28;20211;-83
2023/07/12 10:01:29;;;;;;;10.50;9.38;;;;;;;;;;5110489;28;20206;-83
2023/07/12 10:03:57;;;;;;;10.52;9.40;;;;;;;;;;5102400;28;20212;-82
2023/07/12 10:06:30;;;;;;;11.68;9.65;;;;;;;;;;5093261;28;20705;-83
2023/07/12 10:09:04;;;;;;;10.68;9.07;;;;;;;;;;5105939;28;20199;-82
2023/07/12 10:11:34;;;;;;;10.20;8.82;;;;;;;;;;5113404;28;20191;-82
2023/07/12 10:14:06;;;;;;;11.50;9.13;;;;;;;;;;5112024;28;20200;-82
2023/07/12 10:16:35;;;;;;;12.82;9.10;;;;;;;;;;5093020;28;20231;-83
2023/07/12 10:19:06;;;;;;;11.20;9.05;;;;;;;;;;5106525;28;20202;-82
2023/07/12 10:21:34;;;;;;;10.27;9.27;;;;;;;;;;5102750;28;20203;-82
2023/07/12 10:24:06;;;;;;;10.25;9.25;;;;;;;;;;5096348;28;20283;-83
2023/07/12 10:26:33;;;;;;;11.05;9.93;;;;;;;;;;5103889;28;20207;-83
2023/07/12 10:29:05;;;;;;;10.65;9.65;;;;;;;;;;5098061;28;20198;-82
2023/07/12 10:31:35;;;;;;;10.93;9.63;;;;;;;;;;5101586;28;20755;-82
2023/07/12 10:34:21;;;;;;;11.40;9.43;;;;;;;;;;5111321;28;20199;-82
2023/07/12 10:36:51;;;;;;;14.27;10.40;;;;;;;;;;5112466;28;20215;-82
2023/07/12 10:39:20;;;;;;;10.32;9.18;;;;;;;;;;5112649;28;20206;-82
2023/07/12 10:41:49;;;;;;;12.80;10.25;;;;;;;;;;5112727;28;20203;-82
2023/07/12 10:44:19;;;;;;;11.25;9.77;;;;;;;;;;5104173;28;20204;-82
2023/07/12 10:46:49;;;;;;;12.38;9.93;;;;;;;;;;5105939;28;20199;-83
2023/07/12 10:49:20;;;;;;;12.13;9.55;;;;;;;;;;5092558;28;20242;-82
2023/07/12 10:52:04;;;;;;;10.98;9.95;;;;;;;;;;5096343;28;20677;-82
2023/07/12 10:54:51;;;;;;;10.80;9.85;;;;;;;;;;5098374;28;20200;-82
2023/07/12 10:57:28;;;;;;;10.50;9.40;;;;;;;;;;5102233;28;20715;-82
2023/07/12 11:00:06;;;;;;;10.27;9.05;;;;;;;;;;5107740;28;20276;-82
2023/07/12 11:02:40;;;;;;;10.68;9.65;;;;;;;;;;5104967;28;20195;-82
2023/07/12 11:05:38;;;;;;;10.10;9.10;;;;;;;;;;5092210;28;20313;-83
2023/07/12 11:08:05;;;;;;;10.00;9.20;;;;;;;;;;5105416;28;20435;-82
2023/07/12 11:10:37;;;;;;;11.43;9.50;;;;;;;;;;5103606;28;20567;-83
2023/07/12 11:13:11;;;;;;;10.93;8.57;;;;;;;;;;5098673;28;20188;-82
2023/07/12 11:15:50;;;;;;;11.25;9.07;;;;;;;;;;5111947;28;20206;-82
2023/07/12 11:18:27;;;;;;;11.23;10.13;;;;;;;;;;5103487;28;20219;-82
2023/07/12 11:21:00;;;;;;;9.85;8.82;;;;;;;;;;5105299;28;20249;-83
2023/07/12 11:23:29;;;;;;;9.60;8.70;;;;;;;;;;5102208;28;20705;-82
2023/07/12 11:26:01;;;;;;;10.05;9.05;;;;;;;;;;5107499;28;20199;-83
2023/07/12 11:28:43;;;;;;;10.73;9.40;;;;;;;;;;5091515;28;20200;-82
2023/07/12 11:31:29;;;;;;;10.35;9.07;;;;;;;;;;5097896;28;20214;-82
2023/07/12 11:34:04;;;;;;;11.50;9.43;;;;;;;;;;5098288;28;20195;-82
2023/07/12 11:36:34;;;;;;;9.77;8.77;;;;;;;;;;5099707;28;20645;-83
2023/07/12 11:39:01;;;;;;;10.93;9.80;;;;;;;;;;5110687;28;20604;-82
2023/07/12 11:41:30;;;;;;;11.02;9.50;;;;;;;;;;5112075;28;20204;-82
2023/07/12 11:44:00;;;;;;;10.32;9.02;;;;;;;;;;5091525;28;20291;-82
2023/07/12 11:46:30;;;;;;;12.75;9.45;;;;;;;;;;5091871;28;20211;-82
2023/07/12 11:49:12;;;;;;;13.02;10.00;;;;;;;;;;5111603;28;20576;-82
2023/07/12 11:51:40;;;;;;;10.98;9.13;;;;;;;;;;5097678;28;20203;-84
2023/07/12 11:54:17;;;;;;;10.13;9.07;;;;;;;;;;5111656;28;20273;-83
2023/07/12 11:56:47;;;;;;;10.25;9.18;;;;;;;;;;5111234;28;20773;-83
2023/07/12 11:59:14;;;;;;;13.02;9.77;;;;;;;;;;5111369;28;20200;-82
2023/07/12 12:01:43;;;;;;;13.25;9.55;;;;;;;;;;5105645;28;20648;-83
2023/07/12 12:04:20;;;;;;;13.75;10.23;;;;;;;;;;5103603;28;20210;-82
2023/07/12 12:06:47;;;;;;;10.30;9.30;;;;;;;;;;5110660;28;20211;-82
2023/07/12 12:09:14;;;;;;;10.02;9.10;;;;;;;;;;5096727;28;20200;-82
2023/07/12 12:11:41;;;;;;;9.60;8.60;;;;;;;;;;5090984;28;20204;-83
2023/07/12 12:14:18;;;;;;;11.25;9.20;;;;;;;;;;5092192;28;20286;-82
2023/07/12 12:16:49;;;;;;;10.95;9.70;;;;;;;;;;5101287;28;20228;-82
2023/07/12 12:19:17;;;;;;;10.90;8.95;;;;;;;;;;5108056;28;20235;-83
2023/07/12 12:21:47;;;;;;;11.32;9.30;;;;;;;;;;5100479;28;20204;-82
2023/07/12 12:24:18;;;;;;;10.85;7.95;;;;;;;;;;5108718;28;20678;-82
2023/07/12 12:26:46;;;;;;;11.45;8.57;;;;;;;;;;5098880;28;20208;-82
2023/07/12 12:29:18;;;;;;;12.38;8.85;;;;;;;;;;5090533;28;20215;-82
2023/07/12 12:31:53;;;;;;;11.02;8.38;;;;;;;;;;5090916;28;20211;-82
2023/07/12 12:34:22;;;;;;;10.20;9.20;;;;;;;;;;5098953;28;20226;-82
2023/07/12 12:37:00;;;;;;;9.02;8.13;;;;;;;;;;5110772;28;20601;-82
2023/07/12 12:39:26;;;;;;;9.43;8.52;;;;;;;;;;5100796;28;20200;-82
2023/07/12 12:41:55;;;;;;;8.80;7.63;;;;;;;;;;5104200;28;20196;-83
2023/07/12 12:44:28;;;;;;;9.30;8.40;;;;;;;;;;5090522;28;20208;-82
2023/07/12 12:46:56;;;;;;;9.95;8.73;;;;;;;;;;5109196;28;20196;-82
2023/07/12 12:49:25;;;;;;;10.05;8.85;;;;;;;;;;5110789;28;20223;-82
2023/07/12 12:51:54;;;;;;;10.63;8.55;;;;;;;;;;5110717;28;20215;-82
2023/07/12 12:54:20;;;;;;;9.30;8.43;;;;;;;;;;5098154;28;20204;-82
2023/07/12 12:56:47;;;;;;;10.10;8.65;;;;;;;;;;5104327;28;20565;-82
2023/07/12 12:59:16;;;;;;;11.18;8.50;;;;;;;;;;5090562;28;20201;-82
2023/07/12 13:01:45;;;;;;;12.70;9.32;;;;;;;;;;5110874;28;20618;-82
2023/07/12 13:04:13;;;;;;;9.88;8.80;;;;;;;;;;5097346;28;20200;-83
2023/07/12 13:06:40;;;;;;;9.30;8.32;;;;;;;;;;5111180;28;21350;-82
2023/07/12 13:09:18;;;;;;;9.40;8.50;;;;;;;;;;5096065;28;20288;-82
2023/07/12 13:11:45;;;;;;;10.52;8.73;;;;;;;;;;5099507;28;20199;-82
2023/07/12 13:14:12;;;;;;;10.30;9.40;;;;;;;;;;5094540;28;20231;-82
2023/07/12 13:16:39;;;;;;;8.93;8.02;;;;;;;;;;5099978;28;20195;-82
2023/07/12 13:19:11;;;;;;;10.40;8.50;;;;;;;;;;5099690;28;20204;-82
2023/07/12 13:21:37;;;;;;;10.90;8.80;;;;;;;;;;5104435;28;20204;-82
2023/07/12 13:24:05;;;;;;;9.82;8.90;;;;;;;;;;5108113;28;20200;-82
2023/07/12 13:26:34;;;;;;;10.55;9.50;;;;;;;;;;5104594;28;20227;-82
2023/07/12 13:29:01;;;;;;;10.00;9.10;;;;;;;;;;5100026;28;20195;-82
2023/07/12 13:31:28;;;;;;;11.00;10.00;;;;;;;;;;5103566;28;20211;-82
2023/07/12 13:33:55;;;;;;;10.25;8.93;;;;;;;;;;5107027;28;20196;-82
2023/07/12 13:36:33;;;;;;;9.98;8.98;;;;;;;;;;5094047;28;20209;-82
2023/07/12 13:39:05;;;;;;;9.88;8.77;;;;;;;;;;5106974;28;20223;-82
2023/07/12 13:41:32;;;;;;;9.68;8.77;;;;;;;;;;5107882;28;20234;-82
2023/07/12 13:43:58;;;;;;;10.32;9.35;;;;;;;;;;5100976;28;20634;-82
2023/07/12 13:46:25;;;;;;;9.50;8.30;;;;;;;;;;5113771;28;20218;-82
2023/07/12 13:48:52;;;;;;;11.82;9.63;;;;;;;;;;5113986;28;20207;-82
2023/07/12 13:51:22;;;;;;;9.48;8.57;;;;;;;;;;5113320;28;20222;-82
2023/07/12 13:53:50;;;;;;;10.38;9.38;;;;;;;;;;5092963;28;20211;-82
2023/07/12 13:56:18;;;;;;;9.85;8.57;;;;;;;;;;5107474;28;20214;-82
2023/07/12 13:58:45;;;;;;;10.52;9.63;;;;;;;;;;5101647;28;20224;-82
2023/07/12 14:01:14;;;;;;;12.85;10.18;;;;;;;;;;5111456;28;20204;-82
2023/07/12 14:03:41;;;;;;;12.45;9.18;;;;;;;;;;5102082;28;20682;-82
2023/07/12 14:06:11;;;;;;;14.02;9.70;;;;;;;;;;5097544;28;20208;-82
2023/07/12 14:08:38;;;;;;;11.50;10.35;;;;;;;;;;5103354;28;20211;-83
2023/07/12 14:11:06;;;;;;;10.27;9.23;;;;;;;;;;5099720;28;20248;-82
2023/07/12 14:13:34;;;;;;;10.02;9.07;;;;;;;;;;5103340;28;20204;-82
2023/07/12 14:16:01;;;;;;;10.45;8.98;;;;;;;;;;5107547;28;20231;-82
2023/07/12 14:18:27;;;;;;;9.93;8.98;;;;;;;;;;5103890;28;20931;-83
2023/07/12 14:20:55;;;;;;;11.05;9.93;;;;;;;;;;5113184;28;20199;-82
2023/07/12 14:23:24;;;;;;;10.57;9.50;;;;;;;;;;5113364;28;20199;-83
2023/07/12 14:25:51;;;;;;;10.35;9.35;;;;;;;;;;5113388;28;20206;-82
2023/07/12 14:28:20;;;;;;;10.95;9.60;;;;;;;;;;5101808;28;20283;-83
2023/07/12 14:30:47;;;;;;;11.40;10.18;;;;;;;;;;5110896;28;20217;-82
2023/07/12 14:33:30;;;;;;;10.73;9.57;;;;;;;;;;5113072;28;20617;-82
2023/07/12 14:35:57;;;;;;;11.32;9.68;;;;;;;;;;5113825;28;20293;-83
2023/07/12 14:38:24;;;;;;;9.75;8.75;;;;;;;;;;5112579;28;20311;-82
2023/07/12 14:40:51;;;;;;;10.38;9.23;;;;;;;;;;5113056;28;20203;-82
2023/07/12 14:43:19;;;;;;;10.30;9.30;;;;;;;;;;5112879;28;20203;-83
2023/07/12 14:45:46;;;;;;;11.00;9.02;;;;;;;;;;5113113;28;20206;-82
2023/07/12 14:48:13;;;;;;;9.90;8.90;;;;;;;;;;5112902;28;20198;-82